createdAt,value
2018-08-20T00:01:25.186Z,97679.24
2018-08-20T00:03:53.702Z,97680.12
2018-08-20T00:06:22.258Z,97672.80
2018-08-20T00:08:50.786Z,97675.83
2018-08-20T00:11:19.277Z,97680.53
2018-08-20T00:13:47.765Z,97676.23
2018-08-20T00:16:16.261Z,97678.81
2018-08-20T00:18:44.809Z,97680.94
2018-08-20T00:21:13.313Z,97676.64
2018-08-20T00:23:41.842Z,97677.59
2018-08-20T00:26:10.363Z,97683.58
2018-08-20T00:28:38.846Z,97679.27
2018-08-20T00:31:07.681Z,97680.51
2018-08-20T00:33:36.233Z,97681.41
2018-08-20T00:36:04.719Z,97686.09
2018-08-20T00:38:33.214Z,97689.14
2018-08-20T00:41:01.737Z,97686.17
2018-08-20T00:43:30.275Z,97675.46
2018-08-20T00:45:58.785Z,97678.91
2018-08-20T00:48:27.271Z,97685.34
2018-08-20T00:50:55.819Z,97681.00
2018-08-20T00:53:24.361Z,97683.17
2018-08-20T00:55:52.870Z,97685.75
2018-08-20T00:58:21.455Z,97674.56
2018-08-20T01:00:49.951Z,97676.70
2018-08-20T01:03:19.151Z,97678.88
2018-08-20T01:05:48.590Z,97679.70
2018-08-20T01:08:17.143Z,97678.85
2018-08-20T01:10:45.626Z,97672.83
2018-08-20T01:13:14.161Z,97676.69
2018-08-20T01:15:42.654Z,97685.30
2018-08-20T01:18:11.440Z,97681.45
2018-08-20T01:20:40.067Z,97683.15
2018-08-20T01:23:08.642Z,97685.31
2018-08-20T01:25:37.132Z,97678.85
2018-08-20T01:28:05.828Z,97675.81
2018-08-20T01:30:34.407Z,97673.21
2018-08-20T01:33:09.935Z,97674.50
2018-08-20T01:35:38.449Z,97681.82
2018-08-20T01:38:07.012Z,97687.38
2018-08-20T01:40:35.515Z,97680.09
2018-08-20T01:43:04.012Z,97685.68
2018-08-20T01:45:32.514Z,97688.67
2018-08-20T01:48:01.072Z,97692.98
2018-08-20T01:50:29.583Z,97690.83
2018-08-20T01:52:58.127Z,97689.12
2018-08-20T01:55:26.697Z,97686.07
2018-08-20T01:57:55.199Z,97691.69
2018-08-20T02:00:23.790Z,97690.41
2018-08-20T02:02:55.193Z,97691.69
2018-08-20T02:05:24.215Z,97689.53
2018-08-20T02:07:52.918Z,97688.65
2018-08-20T02:10:21.402Z,97686.07
2018-08-20T02:12:49.910Z,97689.94
2018-08-20T02:15:18.402Z,97692.10
2018-08-20T02:17:46.915Z,97690.41
2018-08-20T02:20:15.422Z,97688.67
2018-08-20T02:22:44.150Z,97686.09
2018-08-20T02:25:13.185Z,97683.09
2018-08-20T02:27:41.712Z,97680.08
2018-08-20T02:30:10.264Z,97682.66
2018-08-20T02:32:38.978Z,97678.80
2018-08-20T02:35:08.032Z,97685.23
2018-08-20T02:37:41.661Z,97683.48
2018-08-20T02:40:11.083Z,97680.90
2018-08-20T02:42:39.569Z,97686.52
2018-08-20T02:45:10.592Z,97681.34
2018-08-20T02:47:40.392Z,97680.90
2018-08-20T02:50:09.299Z,97682.63
2018-08-20T02:52:37.773Z,97684.35
2018-08-20T02:55:06.522Z,97685.64
2018-08-20T02:57:35.207Z,97690.38
2018-08-20T03:00:03.698Z,97685.23
2018-08-20T03:02:32.434Z,97679.61
2018-08-20T03:05:00.967Z,97676.22
2018-08-20T03:07:29.464Z,97680.08
2018-08-20T03:09:57.953Z,97678.33
2018-08-20T03:12:26.489Z,97679.61
2018-08-20T03:14:54.994Z,97680.48
2018-08-20T03:17:23.491Z,97681.34
2018-08-20T03:19:51.977Z,97686.05
2018-08-20T03:22:20.522Z,97684.77
2018-08-20T03:24:49.010Z,97681.75
2018-08-20T03:27:17.506Z,97684.33
2018-08-20T03:29:45.998Z,97682.41
2018-08-20T03:32:14.484Z,97688.55
2018-08-20T03:34:42.966Z,97688.70
2018-08-20T03:37:11.600Z,97693.56
2018-08-20T03:39:40.106Z,97693.71
2018-08-20T03:42:08.599Z,97692.59
2018-08-20T03:44:37.134Z,97694.95
2018-08-20T03:47:05.772Z,97699.08
2018-08-20T03:49:34.270Z,97698.45
2018-08-20T03:52:03.215Z,97701.35
2018-08-20T03:54:31.707Z,97701.23
2018-08-20T03:57:00.244Z,97696.75
2018-08-20T03:59:35.441Z,97700.45
2018-08-20T04:02:05.253Z,97699.89
2018-08-20T04:04:33.750Z,97703.19
2018-08-20T04:07:03.552Z,97695.19
2018-08-20T04:09:32.549Z,97700.63
2018-08-20T04:12:01.931Z,97698.47
2018-08-20T04:14:30.660Z,97697.25
2018-08-20T04:16:59.710Z,97698.26
2018-08-20T04:19:28.709Z,97701.87
2018-08-20T04:21:57.426Z,97701.59
2018-08-20T04:24:25.959Z,97697.88
2018-08-20T04:26:54.411Z,97695.03
2018-08-20T04:29:23.272Z,97692.20
2018-08-20T04:31:51.774Z,97703.05
2018-08-20T04:34:20.268Z,97707.42
2018-08-20T04:36:48.798Z,97710.09
2018-08-20T04:39:17.305Z,97712.80
2018-08-20T04:41:45.818Z,97719.31
2018-08-20T04:44:14.298Z,97718.06
2018-08-20T04:46:42.816Z,97721.16
2018-08-20T04:49:11.332Z,97722.91
2018-08-20T04:51:39.911Z,97727.23
2018-08-20T04:54:08.403Z,97731.14
2018-08-20T04:56:37.902Z,97724.74
2018-08-20T04:59:06.931Z,97724.36
2018-08-20T05:01:35.421Z,97725.67
2018-08-20T05:04:03.961Z,97730.00
2018-08-20T05:06:32.484Z,97728.73
2018-08-20T05:09:01.032Z,97729.62
2018-08-20T05:11:29.655Z,97729.23
2018-08-20T05:13:58.133Z,97734.41
2018-08-20T05:16:26.630Z,97737.42
2018-08-20T05:18:55.237Z,97733.15
2018-08-20T05:21:23.683Z,97733.15
2018-08-20T05:23:52.179Z,97732.33
2018-08-20T05:26:21.441Z,97733.20
2018-08-20T05:28:49.978Z,97734.49
2018-08-20T05:31:18.473Z,97728.80
2018-08-20T05:33:47.027Z,97729.48
2018-08-20T05:36:15.565Z,97726.65
2018-08-20T05:38:44.045Z,97729.28
2018-08-20T05:41:12.560Z,97731.58
2018-08-20T05:43:41.098Z,97737.28
2018-08-20T05:46:09.612Z,97737.33
2018-08-20T05:48:38.705Z,97734.97
2018-08-20T05:51:07.300Z,97745.45
2018-08-20T05:53:35.848Z,97736.36
2018-08-20T05:56:04.386Z,97738.34
2018-08-20T05:58:32.906Z,97741.75
2018-08-20T06:01:01.403Z,97745.23
2018-08-20T06:03:30.386Z,97748.52
2018-08-20T06:05:58.869Z,97746.69
2018-08-20T06:08:27.383Z,97749.66
2018-08-20T06:10:55.921Z,97749.11
2018-08-20T06:13:24.430Z,97746.95
2018-08-20T06:15:52.931Z,97749.98
2018-08-20T06:18:21.543Z,97756.77
2018-08-20T06:20:50.044Z,97750.28
2018-08-20T06:23:19.171Z,97751.05
2018-08-20T06:25:47.729Z,97752.34
2018-08-20T06:28:16.201Z,97755.72
2018-08-20T06:30:44.724Z,97754.80
2018-08-20T06:33:13.224Z,97752.63
2018-08-20T06:35:41.769Z,97762.09
2018-08-20T06:38:10.387Z,97759.08
2018-08-20T06:40:38.883Z,97760.19
2018-08-20T06:43:07.559Z,97762.16
2018-08-20T06:45:36.022Z,97761.76
2018-08-20T06:48:04.488Z,97765.39
2018-08-20T06:50:32.959Z,97759.64
2018-08-20T06:53:01.426Z,97756.44
2018-08-20T06:55:29.917Z,97755.51
2018-08-20T06:57:58.497Z,97756.16
2018-08-20T07:00:26.992Z,97754.70
2018-08-20T07:02:55.442Z,97755.38
2018-08-20T07:05:23.935Z,97761.16
2018-08-20T07:07:52.390Z,97760.84
2018-08-20T07:10:20.865Z,97770.75
2018-08-20T07:12:49.333Z,97765.27
2018-08-20T07:15:17.797Z,97763.14
2018-08-20T07:17:46.292Z,97764.48
2018-08-20T07:20:15.915Z,97768.34
2018-08-20T07:22:44.768Z,97761.16
2018-08-20T07:25:13.244Z,97761.22
2018-08-20T07:27:41.723Z,97763.83
2018-08-20T07:30:11.454Z,97761.22
2018-08-20T07:32:39.919Z,97766.37
2018-08-20T07:35:08.408Z,97773.33
2018-08-20T07:37:36.898Z,97774.64
2018-08-20T07:40:06.891Z,97767.84
2018-08-20T07:42:35.345Z,97770.88
2018-08-20T07:45:03.840Z,97771.75
2018-08-20T07:47:32.291Z,97767.09
2018-08-20T07:50:00.780Z,97763.70
2018-08-20T07:52:29.264Z,97763.35
2018-08-20T07:54:57.721Z,97768.17
2018-08-20T07:57:26.210Z,97774.20
2018-08-20T07:59:54.683Z,97769.08
2018-08-20T08:02:23.147Z,97773.03
2018-08-20T08:04:51.633Z,97773.94
2018-08-20T08:07:20.093Z,97767.53
2018-08-20T08:09:48.558Z,97766.74
2018-08-20T08:12:17.022Z,97768.06
2018-08-20T08:14:45.484Z,97769.81
2018-08-20T08:17:13.941Z,97773.67
2018-08-20T08:19:42.421Z,97771.56
2018-08-20T08:22:10.910Z,97766.86
2018-08-20T08:24:39.386Z,97764.31
2018-08-20T08:27:07.843Z,97767.33
2018-08-20T08:29:36.305Z,97760.05
2018-08-20T08:32:04.762Z,97761.77
2018-08-20T08:34:33.248Z,97767.33
2018-08-20T08:37:02.319Z,97761.36
2018-08-20T08:39:30.783Z,97762.20
2018-08-20T08:41:59.250Z,97763.52
2018-08-20T08:44:27.711Z,97756.66
2018-08-20T08:46:56.176Z,97761.83
2018-08-20T08:49:24.634Z,97758.41
2018-08-20T08:51:53.107Z,97750.69
2018-08-20T08:54:21.571Z,97754.14
2018-08-20T08:56:50.044Z,97754.16
2018-08-20T08:59:18.556Z,97756.77
2018-08-20T09:01:47.046Z,97757.20
2018-08-20T09:04:15.520Z,97761.09
2018-08-20T09:06:43.965Z,97760.68
2018-08-20T09:09:12.450Z,97757.67
2018-08-20T09:11:40.931Z,97755.53
2018-08-20T09:14:09.389Z,97755.53
2018-08-20T09:16:38.094Z,97759.42
2018-08-20T09:19:06.658Z,97760.33
2018-08-20T09:21:35.371Z,97762.47
2018-08-20T09:24:03.838Z,97753.91
2018-08-20T09:26:32.299Z,97751.77
2018-08-20T09:29:00.777Z,97760.77
2018-08-20T09:31:29.227Z,97750.48
2018-08-20T09:33:57.686Z,97753.46
2018-08-20T09:36:26.150Z,97746.62
2018-08-20T09:38:54.614Z,97751.36
2018-08-20T09:41:23.065Z,97750.09
2018-08-20T09:43:51.562Z,97751.82
2018-08-20T09:46:20.056Z,97747.08
2018-08-20T09:48:48.531Z,97752.70
2018-08-20T09:51:17.016Z,97741.96
2018-08-20T09:53:45.486Z,97742.41
2018-08-20T09:56:13.965Z,97743.25
2018-08-20T09:58:42.425Z,97741.98
2018-08-20T10:01:10.892Z,97736.84
2018-08-20T10:03:43.491Z,97736.44
2018-08-20T10:06:11.957Z,97736.03
2018-08-20T10:08:40.564Z,97725.73
2018-08-20T10:11:09.613Z,97727.02
2018-08-20T10:13:38.157Z,97733.89
2018-08-20T10:16:07.224Z,97726.99
2018-08-20T10:18:36.304Z,97723.59
2018-08-20T10:21:04.749Z,97723.21
2018-08-20T10:23:33.216Z,97723.67
2018-08-20T10:26:01.806Z,97722.00
2018-08-20T10:28:30.286Z,97723.31
2018-08-20T10:30:58.759Z,97714.33
2018-08-20T10:33:27.352Z,97716.46
2018-08-20T10:35:55.815Z,97714.36
2018-08-20T10:38:24.392Z,97717.39
2018-08-20T10:40:52.850Z,97713.58
2018-08-20T10:43:21.299Z,97720.06
2018-08-20T10:45:54.971Z,97711.49
2018-08-20T10:48:23.442Z,97708.53
2018-08-20T10:50:51.923Z,97712.42
2018-08-20T10:53:20.397Z,97709.44
2018-08-20T10:55:48.862Z,97708.99
2018-08-20T10:58:17.333Z,97713.73
2018-08-20T11:00:45.786Z,97718.88
2018-08-20T11:03:14.300Z,97700.45
2018-08-20T11:05:42.760Z,97699.59
2018-08-20T11:08:11.223Z,97700.06
2018-08-20T11:10:39.718Z,97689.32
2018-08-20T11:13:08.203Z,97696.22
2018-08-20T11:15:36.666Z,97704.36
2018-08-20T11:18:05.419Z,97696.66
2018-08-20T11:20:33.906Z,97698.82
2018-08-20T11:23:02.419Z,97697.53
2018-08-20T11:25:30.910Z,97694.54
2018-08-20T11:27:59.369Z,97690.70
2018-08-20T11:30:27.838Z,97692.02
2018-08-20T11:32:56.493Z,97693.77
2018-08-20T11:35:25.258Z,97686.02
2018-08-20T11:37:54.049Z,97681.33
2018-08-20T11:40:22.959Z,97685.63
2018-08-20T11:42:51.936Z,97671.45
2018-08-20T11:45:20.618Z,97675.34
2018-08-20T11:47:49.414Z,97667.20
2018-08-20T11:50:18.061Z,97669.78
2018-08-20T11:52:46.896Z,97665.94
2018-08-20T11:55:15.569Z,97667.23
2018-08-20T11:57:44.251Z,97664.66
2018-08-20T12:00:13.091Z,97662.08
2018-08-20T12:02:41.866Z,97665.94
2018-08-20T12:05:11.012Z,97663.39
2018-08-20T12:07:39.801Z,97658.27
2018-08-20T12:10:09.784Z,97652.68
2018-08-20T12:12:38.933Z,97652.70
2018-08-20T12:15:09.414Z,97658.28
2018-08-20T12:17:37.975Z,97657.00
2018-08-20T12:20:07.092Z,97656.14
2018-08-20T12:22:35.557Z,97649.27
2018-08-20T12:25:04.666Z,97647.59
2018-08-20T12:27:33.126Z,97651.45
2018-08-20T12:30:01.723Z,97654.03
2018-08-20T12:32:30.194Z,97655.32
2018-08-20T12:34:58.641Z,97645.86
2018-08-20T12:37:27.288Z,97646.72
2018-08-20T12:39:56.105Z,97636.85
2018-08-20T12:42:24.574Z,97643.35
2018-08-20T12:44:53.094Z,97639.05
2018-08-20T12:47:21.553Z,97629.63
2018-08-20T12:49:50.031Z,97639.08
2018-08-20T12:52:18.537Z,97640.77
2018-08-20T12:54:47.006Z,97640.34
2018-08-20T12:57:15.753Z,97640.77
2018-08-20T12:59:44.213Z,97639.08
2018-08-20T13:02:12.948Z,97629.66
2018-08-20T13:04:41.751Z,97635.64
2018-08-20T13:07:10.525Z,97636.11
2018-08-20T13:09:39.205Z,97629.67
2018-08-20T13:12:07.892Z,97629.23
2018-08-20T13:14:36.571Z,97619.84
2018-08-20T13:17:05.265Z,97622.84
2018-08-20T13:19:33.835Z,97622.43
2018-08-20T13:22:02.532Z,97622.02
2018-08-20T13:24:31.639Z,97615.58
2018-08-20T13:27:00.478Z,97613.44
2018-08-20T13:29:29.838Z,97611.30
2018-08-20T13:31:58.343Z,97601.45
2018-08-20T13:34:27.090Z,97594.55
2018-08-20T13:36:55.768Z,97600.58
2018-08-20T13:39:24.651Z,97589.86
2018-08-20T13:41:53.441Z,97591.16
2018-08-20T13:44:22.392Z,97588.15
2018-08-20T13:46:51.127Z,97588.15
2018-08-20T13:49:19.634Z,97580.84
2018-08-20T13:51:48.402Z,97583.45
2018-08-20T13:54:17.189Z,97574.41
2018-08-20T13:56:45.870Z,97573.12
2018-08-20T13:59:14.561Z,97570.55
2018-08-20T14:01:43.454Z,97563.66
2018-08-20T14:04:12.157Z,97562.37
2018-08-20T14:06:40.978Z,97558.52
2018-08-20T14:09:10.990Z,97561.55
2018-08-20T14:11:39.732Z,97568.40
2018-08-20T14:14:08.768Z,97559.39
2018-08-20T14:16:37.725Z,97560.27
2018-08-20T14:19:06.721Z,97558.09
2018-08-20T14:21:35.452Z,97552.09
2018-08-20T14:24:04.802Z,97553.38
2018-08-20T14:26:33.421Z,97550.84
2018-08-20T14:29:02.169Z,97554.69
2018-08-20T14:31:30.860Z,97549.53
2018-08-20T14:33:59.651Z,97551.72
2018-08-20T14:36:28.368Z,97544.38
2018-08-20T14:38:56.870Z,97549.53
2018-08-20T14:41:25.331Z,97547.42
2018-08-20T14:43:53.808Z,97544.84
2018-08-20T14:46:23.328Z,97536.23
2018-08-20T14:48:53.029Z,97534.95
2018-08-20T14:51:22.667Z,97530.67
2018-08-20T14:53:51.136Z,97536.23
2018-08-20T14:56:19.658Z,97538.41
2018-08-20T14:58:48.110Z,97536.67
2018-08-20T15:01:16.623Z,97529.80
2018-08-20T15:03:45.124Z,97527.66
2018-08-20T15:06:13.600Z,97521.23
2018-08-20T15:08:42.075Z,97522.11
2018-08-20T15:11:10.553Z,97510.93
2018-08-20T15:13:39.032Z,97521.23
2018-08-20T15:16:07.891Z,97521.70
2018-08-20T15:18:36.243Z,97519.53
2018-08-20T15:21:04.726Z,97516.95
2018-08-20T15:23:33.195Z,97512.64
2018-08-20T15:26:01.675Z,97514.78
2018-08-20T15:28:30.144Z,97511.36
2018-08-20T15:30:58.598Z,97504.45
2018-08-20T15:33:27.045Z,97502.33
2018-08-20T15:35:55.699Z,97501.45
2018-08-20T15:38:24.210Z,97498.00
2018-08-20T15:40:52.671Z,97507.89
2018-08-20T15:43:21.155Z,97502.31
2018-08-20T15:45:49.658Z,97504.01
2018-08-20T15:48:21.787Z,97508.73
2018-08-20T15:50:50.274Z,97505.71
2018-08-20T15:53:18.752Z,97504.42
2018-08-20T15:55:47.236Z,97504.42
2018-08-20T15:58:15.701Z,97502.31
2018-08-20T16:00:44.176Z,97501.44
2018-08-20T16:03:12.671Z,97493.30
2018-08-20T16:05:41.147Z,97497.59
2018-08-20T16:08:09.598Z,97491.56
2018-08-20T16:10:38.054Z,97495.01
2018-08-20T16:13:06.645Z,97492.84
2018-08-20T16:15:35.083Z,97497.59
2018-08-20T16:18:03.580Z,97495.42
2018-08-20T16:20:32.110Z,97496.71
2018-08-20T16:23:00.635Z,97493.72
2018-08-20T16:25:29.107Z,97493.72
2018-08-20T16:27:57.575Z,97483.02
2018-08-20T16:30:26.030Z,97492.05
2018-08-20T16:32:54.527Z,97484.74
2018-08-20T16:35:23.122Z,97484.74
2018-08-20T16:37:51.584Z,97484.74
2018-08-20T16:40:20.136Z,97487.75
2018-08-20T16:42:48.625Z,97486.91
2018-08-20T16:45:17.124Z,97488.19
2018-08-20T16:47:45.603Z,97482.16
2018-08-20T16:50:14.457Z,97479.16
2018-08-20T16:52:43.334Z,97474.44
2018-08-20T16:55:11.808Z,97480.45
2018-08-20T16:57:40.283Z,97487.71
2018-08-20T17:00:10.942Z,97486.41
2018-08-20T17:02:43.323Z,97489.84
2018-08-20T17:05:13.298Z,97487.66
2018-08-20T17:07:41.894Z,97480.81
2018-08-20T17:10:11.907Z,97482.09
2018-08-20T17:12:40.674Z,97492.39
2018-08-20T17:15:10.385Z,97491.09
2018-08-20T17:17:39.254Z,97497.95
2018-08-20T17:20:09.157Z,97494.09
2018-08-20T17:22:37.626Z,97497.11
2018-08-20T17:25:06.826Z,97496.68
2018-08-20T17:27:35.315Z,97496.27
2018-08-20T17:30:03.931Z,97504.88
2018-08-20T17:32:32.448Z,97498.86
2018-08-20T17:35:00.938Z,97501.03
2018-08-20T17:37:29.414Z,97507.03
2018-08-20T17:40:04.777Z,97504.47
2018-08-20T17:42:33.830Z,97497.17
2018-08-20T17:45:02.882Z,97499.77
2018-08-20T17:47:32.108Z,97502.75
2018-08-20T17:50:01.141Z,97511.36
2018-08-20T17:52:32.974Z,97509.61
2018-08-20T17:55:03.368Z,97518.63
2018-08-20T17:57:31.913Z,97519.91
2018-08-20T18:00:41.758Z,97519.89
2018-08-20T18:03:20.351Z,97525.48
2018-08-20T18:06:06.612Z,97529.80
2018-08-20T18:08:35.395Z,97523.36
2018-08-20T18:11:04.383Z,97523.34
2018-08-20T18:13:43.557Z,97534.52
2018-08-20T18:16:14.312Z,97536.19
2018-08-20T18:18:45.433Z,97540.89
2018-08-20T18:21:13.917Z,97539.09
2018-08-20T18:23:42.391Z,97543.38
2018-08-20T18:26:10.896Z,97550.66
2018-08-20T18:28:45.454Z,97545.16
2018-08-20T18:31:18.247Z,97550.31
2018-08-20T18:33:46.715Z,97552.48
2018-08-20T18:36:17.196Z,97552.89
2018-08-20T18:38:52.373Z,97553.32
2018-08-20T18:41:22.990Z,97557.63
2018-08-20T18:43:51.449Z,97558.05
2018-08-20T18:46:19.924Z,97561.91
2018-08-20T18:48:48.746Z,97564.89
2018-08-20T18:51:17.451Z,97566.64
2018-08-20T18:53:45.915Z,97562.34
2018-08-20T18:56:17.619Z,97571.28
2018-08-20T18:58:46.243Z,97575.66
2018-08-20T19:01:14.753Z,97584.23
2018-08-20T19:03:48.573Z,97583.41
2018-08-20T19:06:17.834Z,97588.61
2018-08-20T19:08:46.361Z,97594.22
2018-08-20T19:11:14.819Z,97595.94
2018-08-20T19:13:44.050Z,97596.40
2018-08-20T19:16:37.258Z,97602.88
2018-08-20T19:19:06.924Z,97603.30
2018-08-20T19:21:40.844Z,97606.31
2018-08-20T19:24:09.871Z,97605.48
2018-08-20T19:26:38.381Z,97605.92
2018-08-20T19:29:19.886Z,97603.34
2018-08-20T19:31:48.395Z,97604.23
2018-08-20T19:34:16.931Z,97610.68
2018-08-20T19:36:45.416Z,97610.22
2018-08-20T19:39:13.892Z,97614.09
2018-08-20T19:41:42.393Z,97609.38
2018-08-20T19:44:10.891Z,97613.27
2018-08-20T19:46:39.883Z,97615.03
2018-08-20T19:49:11.688Z,97622.35
2018-08-20T19:51:41.810Z,97622.35
2018-08-20T19:54:12.611Z,97624.92
2018-08-20T19:56:41.112Z,97626.23
2018-08-20T19:59:09.814Z,97627.08
2018-08-20T20:01:38.399Z,97623.66
2018-08-20T20:04:07.065Z,97621.92
2018-08-20T20:06:35.590Z,97626.64
2018-08-20T20:09:07.807Z,97625.39
2018-08-20T20:11:41.779Z,97630.98
2018-08-20T20:14:10.260Z,97636.58
2018-08-20T20:16:44.045Z,97632.27
2018-08-20T20:19:12.685Z,97632.27
2018-08-20T20:21:41.192Z,97636.59
2018-08-20T20:24:10.383Z,97635.73
2018-08-20T20:26:39.088Z,97638.31
2018-08-20T20:29:08.808Z,97634.03
2018-08-20T20:31:38.572Z,97643.08
2018-08-20T20:34:07.422Z,97644.80
2018-08-20T20:36:36.010Z,97645.67
2018-08-20T20:39:05.937Z,97648.25
2018-08-20T20:41:34.457Z,97648.27
2018-08-20T20:44:02.984Z,97651.27
2018-08-20T20:46:31.528Z,97660.70
2018-08-20T20:49:00.031Z,97664.59
2018-08-20T20:51:28.525Z,97663.75
2018-08-20T20:53:57.053Z,97667.17
2018-08-20T20:56:25.542Z,97667.17
2018-08-20T20:58:54.050Z,97671.85
2018-08-20T21:01:22.533Z,97674.78
2018-08-20T21:03:51.039Z,97679.05
2018-08-20T21:06:19.505Z,97682.39
2018-08-20T21:08:49.058Z,97685.77
2018-08-20T21:11:19.200Z,97689.98
2018-08-20T21:13:47.981Z,97692.94
2018-08-20T21:16:18.676Z,97694.18
2018-08-20T21:18:53.866Z,97692.77
2018-08-20T21:21:23.139Z,97691.87
2018-08-20T21:23:51.634Z,97689.70
2018-08-20T21:26:20.197Z,97701.27
2018-08-20T21:28:51.910Z,97701.27
2018-08-20T21:31:22.583Z,97703.88
2018-08-20T21:33:55.233Z,97701.30
2018-08-20T21:36:23.728Z,97701.74
2018-08-20T21:38:52.215Z,97702.59
2018-08-20T21:41:28.084Z,97700.89
2018-08-20T21:43:57.170Z,97701.32
2018-08-20T21:46:25.686Z,97703.05
2018-08-20T21:48:54.807Z,97709.05
2018-08-20T21:51:25.056Z,97706.06
2018-08-20T21:53:53.584Z,97711.64
2018-08-20T21:56:22.195Z,97708.23
2018-08-20T21:58:50.738Z,97708.64
2018-08-20T22:01:19.319Z,97713.38
2018-08-20T22:03:47.878Z,97715.51
2018-08-20T22:06:17.236Z,97719.88
2018-08-20T22:08:46.295Z,97728.01
2018-08-20T22:11:14.878Z,97725.81
2018-08-20T22:13:43.406Z,97721.57
2018-08-20T22:16:22.005Z,97726.74
2018-08-20T22:18:57.020Z,97724.14
2018-08-20T22:21:25.955Z,97723.30
2018-08-20T22:24:00.370Z,97723.73
2018-08-20T22:26:29.119Z,97723.73
2018-08-20T22:28:58.407Z,97723.68
2018-08-20T22:31:26.918Z,97728.01
2018-08-20T22:34:00.766Z,97719.38
2018-08-20T22:36:31.081Z,97722.45
2018-08-20T22:39:01.581Z,97723.73
2018-08-20T22:41:31.065Z,97724.97
2018-08-20T22:43:59.639Z,97726.31
2018-08-20T22:46:28.294Z,97730.17
2018-08-20T22:48:59.292Z,97728.83
2018-08-20T22:51:29.139Z,97728.38
2018-08-20T22:53:59.213Z,97726.72
2018-08-20T22:56:29.770Z,97732.25
2018-08-20T22:59:00.620Z,97704.94
2018-08-20T23:01:29.369Z,97735.73
2018-08-20T23:03:58.052Z,97728.38
2018-08-20T23:06:26.951Z,97728.38
2018-08-20T23:08:55.494Z,97730.96
2018-08-20T23:11:38.246Z,97730.96
2018-08-20T23:14:08.441Z,97730.96
2018-08-20T23:16:37.471Z,97734.03
2018-08-20T23:19:06.026Z,97737.91
2018-08-20T23:21:49.298Z,97730.12
2018-08-20T23:24:18.508Z,97736.11
2018-08-20T23:26:47.029Z,97738.69
2018-08-20T23:29:15.580Z,97739.13
2018-08-20T23:31:44.117Z,97740.42
2018-08-20T23:34:13.880Z,97741.27
2018-08-20T23:36:42.758Z,97747.68
2018-08-20T23:39:17.245Z,97750.72
2018-08-20T23:41:45.777Z,97748.97
2018-08-20T23:44:17.167Z,97747.27
2018-08-20T23:46:47.606Z,97748.97
2018-08-20T23:49:16.238Z,97747.68
2018-08-20T23:51:44.849Z,97753.27
2018-08-20T23:54:13.853Z,97748.98
2018-08-20T23:56:42.528Z,97755.85
2018-08-20T23:59:11.954Z,97756.69
